Time;durP1;ratioP1;P1;durP2;ratioP2;P2;SDS_P1;SDS_P2;PMS_P1;PMS_P2;Temp;Humidity;BMP_temperature;BMP_pressure;BME280_temperature;BME280_humidity;BME280_pressure;Samples;Min_cycle;Max_cycle;Signal;HPM_P1;HPM_P2
2022/04/26 03:38:27;;;;;;;18.13;7.60;;;;;;;3.94;100.00;100915.50;7392718;19;20411;-47
2022/04/26 03:40:59;;;;;;;18.70;9.57;;;;;;;3.90;100.00;100908.41;7393723;19;20376;-49
2022/04/26 03:43:29;;;;;;;17.37;9.23;;;;;;;3.95;100.00;100907.06;7392563;19;20403;-49
2022/04/26 03:45:59;;;;;;;19.57;10.07;;;;;;;3.87;100.00;100905.63;7386535;19;20414;-49
2022/04/26 03:48:31;;;;;;;17.97;8.27;;;;;;;4.06;100.00;100905.28;7393997;19;20405;-45
2022/04/26 03:51:01;;;;;;;16.40;7.80;;;;;;;4.09;100.00;100909.72;7387851;19;20399;-52
2022/04/26 03:53:30;;;;;;;17.80;9.00;;;;;;;4.17;100.00;100908.59;7390903;19;20853;-50
2022/04/26 03:56:00;;;;;;;15.70;8.80;;;;;;;4.15;100.00;100911.03;7384563;19;20411;-52
2022/04/26 03:58:29;;;;;;;21.03;10.63;;;;;;;4.18;100.00;100918.91;7396094;19;21305;-46
2022/04/26 04:00:59;;;;;;;17.43;10.20;;;;;;;4.28;100.00;100922.09;7388156;19;20390;-49
2022/04/26 04:03:31;;;;;;;17.63;9.60;;;;;;;4.29;100.00;100923.88;7392301;19;20944;-49
2022/04/26 04:06:00;;;;;;;19.00;9.70;;;;;;;4.24;100.00;100925.22;7384105;19;20431;-50
2022/04/26 04:08:30;;;;;;;16.50;8.30;;;;;;;4.16;100.00;100922.16;7392033;19;20394;-48
2022/04/26 04:10:59;;;;;;;15.00;8.17;;;;;;;4.19;100.00;100923.25;7385472;19;20399;-47
2022/04/26 04:13:29;;;;;;;15.40;8.40;;;;;;;4.14;100.00;100929.69;7390719;19;20715;-49
2022/04/26 04:15:58;;;;;;;15.00;8.03;;;;;;;3.99;100.00;100928.63;7383561;19;20415;-50
2022/04/26 04:21:13;;;;;;;14.30;8.13;;;;;;;4.22;100.00;100931.88;7387159;19;20391;-51
2022/04/26 04:23:42;;;;;;;15.37;8.10;;;;;;;4.22;100.00;100929.34;7390733;19;20470;-50
2022/04/26 04:26:12;;;;;;;13.93;7.60;;;;;;;4.16;100.00;100928.13;7382719;19;20787;-51
2022/04/26 04:28:41;;;;;;;13.90;8.07;;;;;;;4.11;100.00;100933.69;7391734;19;20400;-51
2022/04/26 04:31:11;;;;;;;16.67;8.63;;;;;;;4.10;100.00;100942.13;7385050;19;20732;-50
2022/04/26 04:33:44;;;;;;;20.80;9.37;;;;;;;4.10;100.00;100937.03;7390315;19;20363;-50
2022/04/26 04:36:15;;;;;;;19.20;10.30;;;;;;;4.15;100.00;100936.56;7383519;19;20414;-47
2022/04/26 04:38:44;;;;;;;15.43;9.20;;;;;;;4.09;100.00;100943.78;7391448;19;20920;-54
2022/04/26 04:41:14;;;;;;;16.80;8.83;;;;;;;4.15;100.00;100946.78;7389029;19;20384;-55
2022/04/26 04:43:44;;;;;;;17.20;9.47;;;;;;;4.24;100.00;100933.78;7398745;19;20387;-54
2022/04/26 04:46:14;;;;;;;15.67;8.53;;;;;;;4.41;100.00;100942.63;7391396;19;20829;-49
2022/04/26 04:48:47;;;;;;;18.87;10.20;;;;;;;4.31;100.00;100945.31;7398806;19;20376;-49
2022/04/26 04:51:16;;;;;;;16.70;8.80;;;;;;;4.37;100.00;100947.41;7392546;19;20382;-51
2022/04/26 04:53:46;;;;;;;14.60;8.47;;;;;;;4.40;100.00;100956.19;7398040;19;21028;-51
2022/04/26 04:56:15;;;;;;;17.03;9.30;;;;;;;4.36;100.00;100956.72;7390647;19;20419;-50
2022/04/26 04:58:44;;;;;;;15.50;8.80;;;;;;;4.31;100.00;100963.22;7398055;19;20384;-49
2022/04/26 05:01:14;;;;;;;11.20;7.37;;;;;;;4.95;100.00;100958.22;7393549;19;20745;-52
2022/04/26 05:03:46;;;;;;;17.27;8.13;;;;;;;5.17;100.00;100962.19;7397894;19;20414;-51
2022/04/26 05:06:16;;;;;;;15.97;8.13;;;;;;;5.39;100.00;100974.75;7388323;19;20434;-52
2022/04/26 05:08:47;;;;;;;13.93;8.10;;;;;;;5.34;100.00;100978.66;7397956;19;20388;-46
2022/04/26 05:11:18;;;;;;;20.00;11.40;;;;;;;5.40;100.00;100976.50;7391188;19;20425;-50
2022/04/26 05:13:48;;;;;;;17.87;10.43;;;;;;;5.24;100.00;100995.06;7397020;19;20401;-47
2022/04/26 05:16:17;;;;;;;43.87;23.73;;;;;;;5.58;100.00;100990.44;7388706;19;22476;-49
2022/04/26 05:18:49;;;;;;;42.03;22.43;;;;;;;5.43;100.00;100995.44;7397912;19;20379;-48
2022/04/26 05:21:19;;;;;;;29.07;15.27;;;;;;;5.42;100.00;100999.66;7392238;19;20723;-51
2022/04/26 05:26:30;;;;;;;23.77;13.17;;;;;;;6.01;100.00;101018.81;7391779;19;20436;-45
2022/04/26 05:29:01;;;;;;;19.93;10.97;;;;;;;6.24;100.00;101026.28;7396954;19;20378;-46
2022/04/26 05:31:30;;;;;;;47.27;22.30;;;;;;;6.20;100.00;101032.84;7391675;19;20416;-47
2022/04/26 05:34:02;;;;;;;72.33;41.00;;;;;;;6.67;100.00;101033.19;7395532;19;20369;-50
2022/04/26 05:36:34;;;;;;;37.47;21.77;;;;;;;6.78;100.00;101041.56;7392078;19;20721;-48
2022/04/26 05:39:04;;;;;;;24.60;13.53;;;;;;;6.75;100.00;101055.97;7399069;19;20410;-48
2022/04/26 05:41:33;;;;;;;36.43;21.60;;;;;;;7.04;100.00;101066.25;7392547;19;20414;-47
2022/04/26 05:44:03;;;;;;;27.33;16.07;;;;;;;7.11;100.00;101058.13;7396802;19;20790;-49
2022/04/26 05:46:32;;;;;;;17.20;9.10;;;;;;;6.95;100.00;101064.00;7389071;19;21257;-49
2022/04/26 05:49:04;;;;;;;20.30;12.10;;;;;;;6.86;100.00;101066.88;7396496;19;20395;-46
2022/04/26 05:51:34;;;;;;;17.97;10.30;;;;;;;6.88;100.00;101055.03;7389062;19;20417;-51
2022/04/26 05:54:03;;;;;;;21.37;10.73;;;;;;;7.16;100.00;101067.00;7395620;19;20752;-48
2022/04/26 05:56:33;;;;;;;22.67;12.87;;;;;;;7.60;100.00;101069.56;7388902;19;20419;-48
2022/04/26 05:59:03;;;;;;;27.67;15.30;;;;;;;7.45;100.00;101071.22;7396838;19;20841;-47
2022/04/26 06:01:33;;;;;;;70.77;36.10;;;;;;;7.79;100.00;101075.78;7393276;19;20408;-52
2022/04/26 06:04:06;;;;;;;72.57;37.17;;;;;;;7.86;100.00;101083.03;7395571;19;20402;-46
2022/04/26 06:06:35;;;;;;;41.00;21.43;;;;;;;7.40;100.00;101081.22;7387481;19;20450;-49
2022/04/26 06:09:05;;;;;;;16.40;9.87;;;;;;;7.24;100.00;101084.53;7395622;19;20376;-49
2022/04/26 06:11:35;;;;;;;22.43;12.73;;;;;;;7.24;100.00;101079.41;7390000;19;20763;-51
2022/04/26 06:14:05;;;;;;;18.43;9.93;;;;;;;7.21;100.00;101082.66;7395263;19;20392;-46
2022/04/26 06:16:34;;;;;;;16.20;8.57;;;;;;;7.24;100.00;101084.53;7387084;19;20651;-48
2022/04/26 06:19:07;;;;;;;25.93;14.87;;;;;;;7.31;100.00;101076.41;7396234;19;20739;-52
2022/04/26 06:21:36;;;;;;;12.27;8.03;;;;;;;7.27;100.00;101077.00;7390931;19;20415;-48
2022/04/26 06:24:06;;;;;;;16.70;8.07;;;;;;;7.36;100.00;101075.00;7394717;19;20373;-50
2022/04/26 06:26:36;;;;;;;15.17;9.30;;;;;;;7.51;100.00;101074.13;7387964;19;20426;-53
2022/04/26 06:29:05;;;;;;;12.40;8.10;;;;;;;7.74;100.00;101072.06;7395996;19;20920;-50
2022/04/26 06:31:35;;;;;;;17.13;8.40;;;;;;;7.81;100.00;101069.03;7390118;19;20417;-49
2022/04/26 06:34:07;;;;;;;19.20;9.30;;;;;;;7.77;100.00;101072.22;7394967;19;20384;-47
2022/04/26 06:36:37;;;;;;;16.43;8.30;;;;;;;7.62;100.00;101070.53;7389714;19;20407;-48
2022/04/26 06:39:06;;;;;;;14.87;8.00;;;;;;;7.62;100.00;101083.38;7395574;19;20398;-51
2022/04/26 06:41:36;;;;;;;13.77;8.17;;;;;;;7.75;100.00;101092.66;7384130;19;20761;-51
2022/04/26 06:44:06;;;;;;;14.20;7.90;;;;;;;7.81;100.00;101099.88;7393846;19;20673;-48
2022/04/26 06:46:36;;;;;;;13.60;7.43;;;;;;;7.91;100.00;101106.41;7385383;19;20411;-52
2022/04/26 06:49:08;;;;;;;91.37;40.20;;;;;;;8.07;100.00;101103.06;7397738;19;20936;-56
2022/04/26 06:51:40;;;;;;;25.87;14.27;;;;;;;8.10;100.00;101098.06;7387729;19;20426;-47
2022/04/26 06:54:10;;;;;;;28.07;15.90;;;;;;;8.23;100.00;101103.16;7394325;19;20406;-47
2022/04/26 06:56:40;;;;;;;23.60;13.00;;;;;;;8.37;100.00;101105.59;7388558;19;20417;-54
2022/04/26 06:59:10;;;;;;;21.90;11.17;;;;;;;8.46;100.00;101112.97;7394993;19;20743;-49
2022/04/26 07:01:39;;;;;;;19.73;10.10;;;;;;;8.50;100.00;101117.44;7386830;19;20409;-47
2022/04/26 07:04:12;;;;;;;14.23;7.77;;;;;;;8.56;100.00;101116.97;7391867;19;20418;-54
2022/04/26 07:06:42;;;;;;;12.53;7.70;;;;;;;8.58;100.00;101128.22;7382275;19;20483;-53
2022/04/26 07:09:12;;;;;;;13.27;7.67;;;;;;;8.76;100.00;101124.09;7394701;19;20384;-48
2022/04/26 07:11:42;;;;;;;13.97;7.80;;;;;;;8.95;100.00;101130.22;7387957;19;20413;-50
2022/04/26 07:14:13;;;;;;;13.27;6.60;;;;;;;8.97;100.00;101135.47;7393477;19;20404;-48
2022/04/26 07:16:48;;;;;;;10.57;6.40;;;;;;;9.07;100.00;101142.00;7385924;19;21085;-53
2022/04/26 07:19:22;;;;;;;9.97;5.83;;;;;;;9.19;100.00;101145.25;7394361;19;20388;-49
2022/04/26 07:21:51;;;;;;;10.33;5.77;;;;;;;9.25;100.00;101143.00;7386063;19;20744;-48
2022/04/26 07:24:36;;;;;;;24.73;13.33;;;;;;;9.25;100.00;101148.16;7392534;19;20419;-49
2022/04/26 07:27:06;;;;;;;17.90;10.13;;;;;;;9.26;100.00;101146.44;7387273;19;20444;-50
2022/04/26 07:29:35;;;;;;;24.90;12.43;;;;;;;9.37;100.00;101144.41;7395136;19;20388;-48
2022/04/26 07:32:06;;;;;;;15.73;8.10;;;;;;;9.57;100.00;101146.38;7387401;19;20431;-54
2022/04/26 07:34:36;;;;;;;18.93;9.30;;;;;;;9.67;100.00;101149.41;7391407;19;20759;-47
2022/04/26 07:37:06;;;;;;;21.73;10.53;;;;;;;9.66;100.00;101143.41;7386733;19;20947;-51
2022/04/26 07:39:37;;;;;;;11.37;6.47;;;;;;;9.72;100.00;101147.97;7393284;19;20388;-50
2022/04/26 07:42:07;;;;;;;12.17;5.80;;;;;;;9.80;100.00;101154.38;7388694;19;20479;-45
2022/04/26 07:44:39;;;;;;;13.03;5.60;;;;;;;9.77;100.00;101151.66;7392076;19;20410;-46
2022/04/26 07:47:09;;;;;;;11.57;6.03;;;;;;;9.79;100.00;101155.19;7386431;19;20427;-53
2022/04/26 07:49:43;;;;;;;12.00;6.37;;;;;;;9.91;100.00;101148.91;7393472;19;20471;-50
2022/04/26 07:52:13;;;;;;;9.50;5.90;;;;;;;10.03;100.00;101159.84;7383911;19;20412;-52
2022/04/26 07:54:42;;;;;;;10.47;5.80;;;;;;;10.02;100.00;101170.06;7391102;19;20495;-52
2022/04/26 07:57:14;;;;;;;10.97;6.03;;;;;;;10.28;100.00;101166.22;7387767;19;20969;-51
2022/04/26 07:59:44;;;;;;;11.20;6.30;;;;;;;10.36;100.00;101167.47;7390660;19;20413;-51
2022/04/26 08:02:14;;;;;;;13.40;6.03;;;;;;;10.66;100.00;101174.09;7388445;19;20434;-51
2022/04/26 08:04:50;;;;;;;11.93;5.80;;;;;;;10.92;100.00;101167.59;7391132;19;20426;-47
2022/04/26 08:07:20;;;;;;;13.20;6.37;;;;;;;10.88;100.00;101178.56;7386452;19;20452;-47
2022/04/26 08:09:49;;;;;;;47.73;17.13;;;;;;;10.94;100.00;101185.75;7393205;19;20385;-48
2022/04/26 08:12:19;;;;;;;11.50;6.63;;;;;;;10.84;100.00;101181.84;7383286;19;20433;-48
2022/04/26 08:14:48;;;;;;;15.27;6.10;;;;;;;10.75;100.00;101183.97;7395346;19;20412;-50
2022/04/26 08:17:18;;;;;;;12.70;6.03;;;;;;;10.75;100.00;101182.28;7391283;19;20938;-49
2022/04/26 08:19:47;;;;;;;10.10;5.50;;;;;;;10.91;100.00;101188.16;7400189;19;20384;-49
2022/04/26 08:22:19;;;;;;;10.20;5.90;;;;;;;11.07;100.00;101195.81;7394073;19;20422;-52
2022/04/26 08:27:33;;;;;;;8.70;5.10;;;;;;;11.06;100.00;101195.75;7395849;19;20422;-48
2022/04/26 08:30:05;;;;;;;12.03;5.20;;;;;;;11.14;100.00;101194.44;7397756;19;20392;-47
2022/04/26 08:32:45;;;;;;;8.63;4.93;;;;;;;11.28;100.00;101194.16;7393459;19;20452;-49
2022/04/26 08:35:17;;;;;;;7.70;4.70;;;;;;;11.45;100.00;101194.94;7397341;19;20416;-47
2022/04/26 08:37:49;;;;;;;25.70;9.20;;;;;;;11.40;100.00;101201.59;7392366;19;20421;-49
2022/04/26 08:40:19;;;;;;;10.00;5.60;;;;;;;11.47;100.00;101196.78;7399415;19;20386;-49
2022/04/26 08:42:51;;;;;;;12.10;5.70;;;;;;;11.46;100.00;101207.03;7391080;19;20752;-47
2022/04/26 08:45:23;;;;;;;19.33;7.50;;;;;;;11.54;100.00;101207.38;7396096;19;20492;-54
2022/04/26 08:53:38;;;;;;;11.20;4.60;;;;;;;11.89;100.00;101215.81;7394180;19;20413;-47
2022/04/26 08:56:08;;;;;;;12.30;7.30;;;;;;;11.81;100.00;101219.75;7390507;19;20439;-48
2022/04/26 08:58:39;;;;;;;8.27;5.07;;;;;;;11.77;100.00;101218.75;7398018;19;20389;-48
2022/04/26 09:01:11;;;;;;;7.80;5.40;;;;;;;11.64;100.00;101225.06;7394373;19;20424;-47
2022/04/26 09:03:42;;;;;;;11.37;6.43;;;;;;;11.77;100.00;101223.00;7396725;19;20933;-49
2022/04/26 09:06:15;;;;;;;8.17;5.13;;;;;;;11.74;98.87;101209.16;7384536;19;20424;-48
2022/04/26 09:08:48;;;;;;;12.40;4.90;;;;;;;11.78;100.00;101219.66;7398286;19;20379;-48
2022/04/26 09:11:27;;;;;;;9.47;5.40;;;;;;;12.00;97.81;101216.28;7389349;19;20407;-51
2022/04/26 09:13:57;;;;;;;11.17;5.97;;;;;;;12.19;96.95;101219.69;7397498;19;20397;-46
2022/04/26 09:16:27;;;;;;;8.60;4.67;;;;;;;12.36;96.12;101221.28;7391036;19;20418;-47
2022/04/26 09:18:58;;;;;;;10.70;5.77;;;;;;;12.50;94.91;101219.28;7398148;19;20916;-46
2022/04/26 09:21:29;;;;;;;17.40;8.10;;;;;;;12.53;94.51;101223.69;7392243;19;20433;-50
2022/04/26 09:24:04;;;;;;;132.40;75.10;;;;;;;12.72;96.92;101219.25;7396527;19;20380;-51
2022/04/26 09:26:36;;;;;;;44.53;26.83;;;;;;;12.96;95.19;101216.75;7389066;19;20409;-47
2022/04/26 09:29:06;;;;;;;7.87;4.93;;;;;;;12.75;88.60;101209.00;7398019;19;20384;-46
2022/04/26 09:31:37;;;;;;;15.30;8.20;;;;;;;12.97;92.18;101210.75;7389506;19;20418;-51
2022/04/26 09:34:13;;;;;;;15.43;8.30;;;;;;;12.99;90.47;101203.94;7397257;19;20405;-49
2022/04/26 09:36:48;;;;;;;9.07;4.93;;;;;;;13.03;86.23;101211.00;7389384;19;20508;-46
2022/04/26 09:39:25;;;;;;;8.33;4.80;;;;;;;12.88;85.14;101206.13;7396636;19;20380;-49
2022/04/26 09:42:14;;;;;;;6.20;4.17;;;;;;;12.90;83.20;101207.06;7392114;19;20423;-47
2022/04/26 09:44:45;;;;;;;10.40;4.60;;;;;;;12.86;82.50;101206.88;7394895;19;20479;-49
2022/04/26 09:47:14;;;;;;;13.00;4.30;;;;;;;12.99;84.27;101206.53;7391723;19;20415;-49
2022/04/26 09:49:44;;;;;;;11.50;5.73;;;;;;;13.09;84.51;101203.44;7397344;19;20399;-47
2022/04/26 09:52:15;;;;;;;6.97;4.20;;;;;;;13.06;80.85;101211.13;7392061;19;20409;-48
2022/04/26 09:54:48;;;;;;;7.33;4.40;;;;;;;13.17;80.09;101208.06;7395238;19;20844;-47
2022/04/26 09:57:23;;;;;;;14.10;6.40;;;;;;;13.24;79.32;101212.66;7391133;19;20772;-48
2022/04/26 10:00:09;;;;;;;8.97;4.77;;;;;;;13.39;77.74;101208.88;7396922;19;20860;-47
2022/04/26 10:02:41;;;;;;;7.90;4.60;;;;;;;13.31;76.85;101206.88;7388942;19;20436;-49
2022/04/26 10:05:11;;;;;;;9.90;5.30;;;;;;;13.53;76.95;101212.88;7395543;19;20791;-50
2022/04/26 10:07:47;;;;;;;15.07;6.63;;;;;;;13.41;73.04;101207.22;7393753;19;20444;-46
2022/04/26 10:10:23;;;;;;;7.50;4.80;;;;;;;13.49;71.80;101211.88;7396753;19;20468;-51
2022/04/26 10:15:34;;;;;;;7.37;4.60;;;;;;;13.16;73.45;101202.00;7393128;19;20770;-50
2022/04/26 10:18:27;;;;;;;17.50;8.30;;;;;;;13.55;76.50;101200.88;7387575;19;20440;-48
2022/04/26 10:20:57;;;;;;;9.97;6.30;;;;;;;14.10;75.98;101205.38;7394263;19;20396;-55
2022/04/26 10:23:26;;;;;;;11.63;4.50;;;;;;;13.66;70.41;101205.56;7399139;19;20494;-47
2022/04/26 10:26:26;;;;;;;7.73;5.00;;;;;;;13.56;72.88;101202.63;7394053;19;20418;-48
2022/04/26 10:28:59;;;;;;;27.03;9.20;;;;;;;13.40;74.95;101208.03;7394421;19;20934;-48
2022/04/26 10:31:38;;;;;;;16.50;7.60;;;;;;;13.64;73.91;101206.38;7386871;19;20419;-49
2022/04/26 10:34:42;;;;;;;36.33;15.50;;;;;;;13.88;78.44;101205.50;7394040;19;20411;-48
2022/04/26 10:37:32;;;;;;;8.60;4.90;;;;;;;14.04;75.83;101212.13;7386617;19;20433;-48
2022/04/26 10:40:04;;;;;;;15.53;6.73;;;;;;;14.02;69.07;101215.47;7393459;19;20469;-47
2022/04/26 10:42:37;;;;;;;23.57;10.83;;;;;;;13.66;76.64;101211.63;7388650;19;20432;-49
2022/04/26 10:45:11;;;;;;;40.13;24.27;;;;;;;14.01;74.42;101205.94;7393639;19;20749;-50
2022/04/26 10:47:42;;;;;;;8.40;4.53;;;;;;;13.98;71.08;101211.00;7390346;19;20427;-52
2022/04/26 10:50:13;;;;;;;8.63;4.70;;;;;;;13.64;68.49;101211.56;7394489;19;20389;-50
2022/04/26 10:52:47;;;;;;;23.43;12.73;;;;;;;13.81;71.93;101208.72;7388815;19;20419;-47
2022/04/26 10:55:21;;;;;;;13.40;7.40;;;;;;;14.28;68.24;101215.50;7392950;19;20408;-54
2022/04/26 10:57:55;;;;;;;11.40;5.10;;;;;;;13.94;66.06;101209.16;7388714;19;20439;-46
2022/04/26 11:00:37;;;;;;;9.63;5.10;;;;;;;13.68;66.94;101209.09;7395183;19;20384;-50
2022/04/26 11:03:09;;;;;;;10.80;5.17;;;;;;;14.16;67.37;101210.78;7389555;19;20419;-50
2022/04/26 11:05:39;;;;;;;8.63;4.70;;;;;;;14.42;65.99;101208.16;7392499;19;20938;-50
2022/04/26 11:08:09;;;;;;;11.47;4.70;;;;;;;14.54;62.43;101215.47;7392920;19;20448;-46
2022/04/26 11:13:35;;;;;;;7.87;4.83;;;;;;;14.66;63.59;101210.66;7387343;19;20422;-54
2022/04/26 11:16:13;;;;;;;8.07;4.40;;;;;;;14.57;65.55;101218.19;7387601;19;20426;-50
2022/04/26 11:18:43;;;;;;;9.00;4.90;;;;;;;14.70;64.73;101217.75;7392406;19;20385;-52
2022/04/26 11:21:15;;;;;;;9.57;4.80;;;;;;;14.50;65.24;101217.09;7384203;19;20451;-45
2022/04/26 11:29:31;;;;;;;19.60;9.17;;;;;;;15.19;60.35;101220.16;7393521;19;20386;-51
2022/04/26 11:32:02;;;;;;;8.20;5.17;;;;;;;15.09;60.08;101223.28;7391440;19;20417;-48
2022/04/26 11:34:51;;;;;;;11.70;4.37;;;;;;;15.18;61.13;101218.34;7392376;19;20418;-50
2022/04/26 11:37:20;;;;;;;8.20;4.80;;;;;;;14.48;60.57;101228.25;7387865;19;20438;-47
2022/04/26 11:39:50;;;;;;;10.43;4.80;;;;;;;14.35;64.32;101232.16;7393869;19;20396;-47
2022/04/26 11:42:19;;;;;;;8.90;5.00;;;;;;;14.11;64.47;101227.88;7388667;19;20420;-47
2022/04/26 11:45:02;;;;;;;12.23;5.43;;;;;;;14.08;60.54;101231.25;7391416;19;20410;-48
2022/04/26 11:47:43;;;;;;;10.57;5.50;;;;;;;14.15;65.76;101230.63;7383095;19;20758;-53
2022/04/26 11:50:17;;;;;;;11.43;5.83;;;;;;;14.04;64.87;101226.78;7392799;19;20473;-50
2022/04/26 11:52:48;;;;;;;12.60;7.10;;;;;;;13.79;64.53;101227.63;7386852;19;20415;-49
2022/04/26 11:55:25;;;;;;;8.70;5.20;;;;;;;14.06;63.64;101229.44;7391214;19;20479;-51
2022/04/26 11:57:56;;;;;;;8.80;5.37;;;;;;;14.10;60.68;101232.19;7387604;19;20432;-51
2022/04/26 12:00:28;;;;;;;7.33;3.73;;;;;;;14.11;60.46;101238.28;7392915;19;20400;-53
2022/04/26 12:02:58;;;;;;;7.93;4.30;;;;;;;14.01;61.29;101232.75;7388623;19;20434;-48
2022/04/26 12:05:28;;;;;;;8.67;5.70;;;;;;;14.05;63.18;101231.13;7389766;19;20415;-51
2022/04/26 12:07:58;;;;;;;8.40;4.37;;;;;;;14.13;63.10;101237.50;7386483;19;20449;-48
2022/04/26 12:10:28;;;;;;;8.17;4.97;;;;;;;14.27;67.33;101227.59;7392636;19;20383;-48
2022/04/26 12:13:01;;;;;;;10.23;5.20;;;;;;;14.37;63.83;101231.38;7387132;19;20417;-47
2022/04/26 12:15:35;;;;;;;10.83;4.90;;;;;;;14.33;63.78;101229.50;7390728;19;20417;-51
2022/04/26 12:18:13;;;;;;;10.67;4.27;;;;;;;14.09;64.69;101235.63;7386311;19;20459;-49
2022/04/26 12:20:59;;;;;;;9.10;5.20;;;;;;;14.06;65.16;101232.03;7392560;19;20478;-50
2022/04/26 12:23:29;;;;;;;9.57;4.60;;;;;;;14.01;66.15;101235.34;7388909;19;20423;-49
2022/04/26 12:25:59;;;;;;;8.10;4.43;;;;;;;14.07;64.29;101229.50;7383851;19;20438;-49
2022/04/26 12:28:29;;;;;;;8.80;4.60;;;;;;;14.03;64.88;101231.09;7391992;19;20398;-51
2022/04/26 12:31:02;;;;;;;7.80;4.47;;;;;;;13.95;62.62;101242.03;7383650;19;20402;-47
2022/04/26 12:33:34;;;;;;;7.73;4.97;;;;;;;13.90;61.19;101226.31;7395527;19;20388;-48
2022/04/26 12:36:06;;;;;;;7.93;4.80;;;;;;;13.98;61.85;101234.34;7384036;19;20433;-51
2022/04/26 12:38:47;;;;;;;23.90;9.70;;;;;;;14.45;60.29;101229.91;7390406;19;20945;-51
2022/04/26 12:41:24;;;;;;;26.53;9.93;;;;;;;15.14;57.37;101234.72;7384644;19;20423;-51
2022/04/26 12:44:03;;;;;;;12.97;6.10;;;;;;;15.73;52.53;101225.09;7390440;19;20380;-48
2022/04/26 12:46:47;;;;;;;10.10;6.40;;;;;;;15.69;50.91;101225.88;7390548;19;20381;-54
2022/04/26 12:52:18;;;;;;;12.27;4.67;;;;;;;14.93;53.64;101235.78;7381979;19;20436;-55
2022/04/26 12:54:56;;;;;;;6.37;4.20;;;;;;;15.01;53.92;101232.56;7390708;19;20431;-47
2022/04/26 12:57:26;;;;;;;8.63;4.70;;;;;;;15.04;53.48;101233.53;7381811;19;20427;-52
2022/04/26 12:59:55;;;;;;;21.70;10.13;;;;;;;14.98;51.41;101231.63;7390678;19;20388;-51
2022/04/26 13:02:28;;;;;;;7.00;5.10;;;;;;;14.77;51.88;101230.97;7382558;19;20497;-51
2022/04/26 13:04:57;;;;;;;14.33;4.87;;;;;;;14.90;53.16;101233.09;7396150;19;20414;-48
2022/04/26 13:07:27;;;;;;;12.10;5.87;;;;;;;15.56;52.04;101227.25;7392821;19;20453;-54
2022/04/26 13:09:57;;;;;;;14.90;5.03;;;;;;;15.87;50.01;101230.69;7397115;19;20913;-50
2022/04/26 13:12:27;;;;;;;7.70;4.40;;;;;;;16.56;46.59;101236.84;7390415;19;20423;-51
2022/04/26 13:14:57;;;;;;;6.37;3.70;;;;;;;16.57;46.05;101229.94;7395262;19;20415;-52
2022/04/26 13:17:31;;;;;;;7.80;3.97;;;;;;;16.56;45.60;101236.00;7392935;19;20439;-50
2022/04/26 13:20:00;;;;;;;11.03;4.03;;;;;;;16.47;45.33;101234.03;7394283;19;20391;-49
2022/04/26 13:22:30;;;;;;;8.13;4.20;;;;;;;15.70;43.92;101223.34;7390942;19;20421;-52
2022/04/26 13:24:59;;;;;;;7.23;4.17;;;;;;;15.35;44.98;101233.59;7396301;19;20418;-48
2022/04/26 13:27:29;;;;;;;6.50;3.80;;;;;;;15.35;47.47;101230.97;7396941;19;20777;-50
2022/04/26 13:29:58;;;;;;;7.40;4.57;;;;;;;14.89;48.10;101233.94;7398023;19;20390;-49
2022/04/26 13:32:31;;;;;;;6.83;4.40;;;;;;;14.72;48.08;101230.78;7389379;19;20418;-52
2022/04/26 13:35:00;;;;;;;9.60;4.70;;;;;;;15.07;47.29;101233.63;7396336;19;20422;-50
2022/04/26 13:37:32;;;;;;;7.00;3.83;;;;;;;15.71;43.13;101227.69;7391687;19;20446;-52
2022/04/26 13:40:02;;;;;;;6.70;3.90;;;;;;;15.93;40.20;101226.59;7398427;19;20397;-46
2022/04/26 13:42:32;;;;;;;7.17;4.10;;;;;;;16.91;40.70;101222.03;7395453;19;20446;-49
2022/04/26 13:45:02;;;;;;;8.70;4.40;;;;;;;17.10;40.25;101223.34;7395830;19;20473;-48
2022/04/26 13:47:34;;;;;;;9.60;5.23;;;;;;;17.43;41.03;101226.66;7391727;19;20411;-48
2022/04/26 13:50:04;;;;;;;11.10;4.53;;;;;;;17.51;40.82;101227.69;7397448;19;20755;-48
2022/04/26 13:52:33;;;;;;;9.70;4.07;;;;;;;16.83;41.12;101227.94;7387105;19;20413;-48
2022/04/26 13:55:03;;;;;;;7.80;4.83;;;;;;;16.43;42.50;101224.38;7395099;19;20424;-50
2022/04/26 13:57:33;;;;;;;6.83;4.27;;;;;;;16.16;45.06;101233.25;7386666;19;20415;-49
2022/04/26 14:00:11;;;;;;;9.40;4.80;;;;;;;16.58;43.83;101227.38;7394855;19;20409;-52
2022/04/26 14:02:45;;;;;;;10.00;5.50;;;;;;;16.92;43.75;101222.06;7388136;19;20421;-50
2022/04/26 14:05:14;;;;;;;8.40;5.50;;;;;;;16.84;43.41;101224.50;7394515;19;20423;-51
2022/04/26 14:07:45;;;;;;;10.43;5.73;;;;;;;17.03;43.55;101229.28;7392158;19;20447;-52
2022/04/26 14:10:15;;;;;;;7.33;4.80;;;;;;;17.09;42.66;101219.88;7400306;19;20740;-53
2022/04/26 14:12:44;;;;;;;10.40;5.77;;;;;;;17.11;43.82;101218.19;7391104;19;20421;-51
2022/04/26 14:23:26;;;;;;;11.23;5.90;;;;;;;16.76;43.23;101231.25;7395719;19;20405;-48
2022/04/26 14:26:03;;;;;;;9.90;5.73;;;;;;;16.92;43.25;101226.41;7389992;19;20491;-48
2022/04/26 14:28:32;;;;;;;11.70;5.27;;;;;;;16.56;44.20;101233.38;7395805;19;20512;-47
2022/04/26 14:31:02;;;;;;;7.97;5.73;;;;;;;16.06;44.31;101238.19;7389552;19;20785;-47
2022/04/26 14:33:34;;;;;;;14.00;5.00;;;;;;;15.65;46.54;101232.72;7394199;19;20927;-51
2022/04/26 14:36:04;;;;;;;10.13;5.10;;;;;;;15.51;47.14;101238.41;7389986;19;20417;-48
2022/04/26 14:38:33;;;;;;;13.13;5.13;;;;;;;15.35;49.34;101226.69;7396745;19;20413;-52
2022/04/26 14:41:05;;;;;;;8.20;4.40;;;;;;;15.69;49.34;101225.88;7389204;19;20422;-49
2022/04/26 14:43:36;;;;;;;7.90;4.97;;;;;;;15.99;50.11;101233.66;7394968;19;20755;-47
2022/04/26 14:46:05;;;;;;;9.40;4.83;;;;;;;15.96;48.86;101223.19;7386420;19;20407;-48
2022/04/26 14:48:38;;;;;;;7.20;4.80;;;;;;;16.11;48.84;101227.03;7394463;19;20450;-52
2022/04/26 14:51:10;;;;;;;7.83;4.67;;;;;;;16.32;48.30;101230.19;7390220;19;20436;-51
2022/04/26 14:53:39;;;;;;;9.30;4.87;;;;;;;16.33;47.93;101225.88;7393482;19;20382;-48
2022/04/26 14:56:12;;;;;;;7.60;4.97;;;;;;;16.51;47.10;101228.03;7389161;19;20947;-48
2022/04/26 14:59:03;;;;;;;7.70;4.83;;;;;;;16.37;47.10;101232.03;7394759;19;20382;-48
2022/04/26 15:01:40;;;;;;;8.00;5.10;;;;;;;16.20;46.99;101227.25;7389523;19;20798;-50
2022/04/26 15:04:13;;;;;;;9.70;5.10;;;;;;;16.03;45.55;101225.13;7393888;19;20766;-46
2022/04/26 15:06:42;;;;;;;6.67;4.50;;;;;;;16.01;45.41;101233.72;7387120;19;20441;-51
2022/04/26 15:16:37;;;;;;;9.60;4.70;;;;;;;15.73;47.15;101226.00;7388582;19;20419;-50
2022/04/26 15:17:27;;;;;;;8.70;5.10;;;;;;;15.71;46.79;101227.69;7371278;19;20576;-52
2022/04/26 15:20:00;;;;;;;8.13;5.10;;;;;;;15.41;48.09;101231.16;7393765;19;20386;-48
2022/04/26 15:22:29;;;;;;;10.17;5.13;;;;;;;15.03;49.06;101233.50;7385436;19;20436;-51
2022/04/26 15:25:02;;;;;;;10.07;4.23;;;;;;;15.12;48.94;101238.97;7389150;19;20822;-50
2022/04/26 15:27:31;;;;;;;6.30;4.17;;;;;;;14.91;48.99;101241.78;7388481;19;20415;-54
2022/04/26 15:30:01;;;;;;;8.53;5.03;;;;;;;14.70;50.91;101235.91;7394141;19;20383;-51
2022/04/26 15:32:30;;;;;;;12.20;7.47;;;;;;;14.74;56.83;101233.41;7386773;19;20441;-51
2022/04/26 15:35:03;;;;;;;8.40;5.27;;;;;;;14.91;53.17;101236.59;7395706;19;20423;-51
2022/04/26 15:37:36;;;;;;;23.33;12.70;;;;;;;15.09;64.73;101244.06;7386803;19;20414;-49
2022/04/26 15:40:07;;;;;;;15.40;10.50;;;;;;;15.35;56.55;101233.59;7393597;19;20393;-51
2022/04/26 15:42:36;;;;;;;25.23;14.60;;;;;;;15.45;51.41;101232.13;7387758;19;21310;-48
2022/04/26 15:45:07;;;;;;;35.30;23.40;;;;;;;15.90;52.14;101236.00;7392531;19;20425;-48
2022/04/26 15:47:37;;;;;;;26.87;15.80;;;;;;;16.13;51.60;101233.16;7387104;19;20421;-46
2022/04/26 15:50:10;;;;;;;13.93;7.37;;;;;;;15.74;47.27;101230.34;7393122;19;20482;-47
2022/04/26 15:52:40;;;;;;;11.87;6.60;;;;;;;15.61;48.33;101239.56;7388499;19;20409;-49
2022/04/26 15:55:10;;;;;;;8.53;5.40;;;;;;;15.91;46.86;101235.16;7391847;19;20761;-48
2022/04/26 15:57:42;;;;;;;13.73;7.20;;;;;;;16.25;47.65;101235.22;7385665;19;20515;-52